Time;durP1;ratioP1;P1;durP2;ratioP2;P2;SDS_P1;SDS_P2;PMS_P1;PMS_P2;Temp;Humidity;BMP_temperature;BMP_pressure;BME280_temperature;BME280_humidity;BME280_pressure;Samples;Min_cycle;Max_cycle;Signal;HPM_P1;HPM_P2
2021/01/01 00:01:32;;;;;;;52.30;29.55;;;;;;;;;;5075643;28;20028;-67
2021/01/01 00:03:57;;;;;;;52.03;29.15;;;;;;;;;;5074360;28;20409;-67
2021/01/01 00:06:24;;;;;;;61.10;31.83;;;;;;;;;;5075854;28;20032;-69
2021/01/01 00:08:49;;;;;;;59.58;30.83;;;;;;;;;;5075526;28;20086;-72
2021/01/01 00:11:15;;;;;;;55.17;29.48;;;;;;;;;;5057573;28;20024;-72
2021/01/01 00:13:40;;;;;;;49.67;27.77;;;;;;;;;;5075484;28;20036;-73
2021/01/01 00:16:06;;;;;;;41.63;24.48;;;;;;;;;;5075582;28;20469;-73
2021/01/01 00:18:31;;;;;;;50.97;28.55;;;;;;;;;;5075420;28;20039;-72
2021/01/01 00:20:57;;;;;;;47.38;27.27;;;;;;;;;;5075214;28;20422;-72
2021/01/01 00:23:22;;;;;;;44.53;26.20;;;;;;;;;;5075133;28;20132;-72
2021/01/01 00:25:48;;;;;;;60.33;32.28;;;;;;;;;;5057120;28;20024;-71
2021/01/01 00:28:13;;;;;;;45.50;27.20;;;;;;;;;;5075374;28;20135;-71
2021/01/01 00:30:39;;;;;;;47.33;27.55;;;;;;;;;;5074978;28;20033;-72
2021/01/01 00:33:04;;;;;;;51.22;29.90;;;;;;;;;;5095006;28;20101;-71
2021/01/01 00:35:30;;;;;;;51.33;28.65;;;;;;;;;;5077275;28;20485;-71
2021/01/01 00:37:55;;;;;;;50.80;27.95;;;;;;;;;;5095386;28;20032;-71
2021/01/01 00:40:21;;;;;;;54.85;29.38;;;;;;;;;;5095251;28;20024;-71
2021/01/01 00:42:46;;;;;;;53.97;30.08;;;;;;;;;;5095143;28;20075;-71
2021/01/01 00:45:12;;;;;;;69.88;40.13;;;;;;;;;;5095208;28;20480;-71
2021/01/01 00:47:38;;;;;;;129.88;75.70;;;;;;;;;;5094862;28;20040;-71
2021/01/01 00:50:04;;;;;;;109.05;64.90;;;;;;;;;;5094632;28;20031;-71
2021/01/01 00:52:29;;;;;;;97.97;60.58;;;;;;;;;;5076740;28;20486;-71
2021/01/01 00:54:55;;;;;;;86.13;53.28;;;;;;;;;;5094816;28;20028;-71
2021/01/01 00:57:20;;;;;;;64.35;35.42;;;;;;;;;;5094776;28;20036;-71
2021/01/01 00:59:46;;;;;;;76.45;44.10;;;;;;;;;;5094755;28;20521;-71
2021/01/01 01:02:11;;;;;;;76.45;45.65;;;;;;;;;;5094925;28;20035;-71
2021/01/01 01:04:37;;;;;;;69.28;39.33;;;;;;;;;;5094746;28;20032;-71
2021/01/01 01:07:03;;;;;;;65.82;39.50;;;;;;;;;;5094382;28;20032;-72
2021/01/01 01:09:28;;;;;;;60.90;35.45;;;;;;;;;;5094564;28;20389;-72
2021/01/01 01:11:54;;;;;;;65.50;34.38;;;;;;;;;;5094592;28;20028;-72
2021/01/01 01:14:19;;;;;;;69.95;39.30;;;;;;;;;;5094384;28;20394;-73
2021/01/01 01:16:45;;;;;;;78.70;41.72;;;;;;;;;;5094216;28;20367;-73
2021/01/01 01:19:10;;;;;;;77.72;40.25;;;;;;;;;;5094520;28;20466;-72
2021/01/01 01:21:35;;;;;;;66.40;35.80;;;;;;;;;;5094735;28;20035;-72
2021/01/01 01:24:01;;;;;;;70.40;36.70;;;;;;;;;;5076136;28;20024;-72
2021/01/01 01:26:27;;;;;;;73.97;40.00;;;;;;;;;;5094171;28;20032;-72
2021/01/01 01:28:52;;;;;;;70.72;35.33;;;;;;;;;;5094318;28;20125;-72
2021/01/01 01:31:18;;;;;;;63.50;33.53;;;;;;;;;;5072051;28;20162;-72
2021/01/01 01:33:44;;;;;;;57.95;31.17;;;;;;;;;;5074394;28;20341;-72
2021/01/01 01:36:09;;;;;;;52.42;28.65;;;;;;;;;;5073977;28;20033;-72
2021/01/01 01:38:34;;;;;;;59.80;31.08;;;;;;;;;;5073571;28;20024;-72
2021/01/01 01:41:00;;;;;;;58.50;31.88;;;;;;;;;;5072292;28;20196;-72
2021/01/01 01:43:26;;;;;;;60.95;32.80;;;;;;;;;;5072615;28;20032;-73
2021/01/01 01:45:53;;;;;;;61.70;33.10;;;;;;;;;;5072395;28;20035;-72
2021/01/01 01:48:24;;;;;;;62.30;32.38;;;;;;;;;;5073593;28;20471;-72
2021/01/01 01:50:49;;;;;;;;;;;;;;;;;;5073955;28;20483;-72
2021/01/01 01:53:16;;;;;;;64.60;32.67;;;;;;;;;;5072287;28;19927;-72
2021/01/01 01:55:42;;;;;;;59.50;31.15;;;;;;;;;;5072151;28;20037;-71
2021/01/01 01:58:07;;;;;;;64.55;33.20;;;;;;;;;;5073456;28;20043;-71
2021/01/01 02:03:17;;;;;;;62.97;33.83;;;;;;;;;;5073716;28;20128;-72
2021/01/01 02:05:42;;;;;;;58.42;32.60;;;;;;;;;;5072204;28;20455;-72
2021/01/01 02:08:08;;;;;;;63.75;34.67;;;;;;;;;;5073314;28;20040;-72
2021/01/01 02:10:33;;;;;;;61.42;34.10;;;;;;;;;;5073191;28;20028;-72
2021/01/01 02:13:00;;;;;;;64.25;34.95;;;;;;;;;;5073371;28;20044;-72
2021/01/01 02:15:26;;;;;;;63.85;34.22;;;;;;;;;;5073157;28;20025;-72
2021/01/01 02:17:52;;;;;;;64.22;34.30;;;;;;;;;;5073177;28;20487;-72
2021/01/01 02:20:17;;;;;;;64.38;34.65;;;;;;;;;;5073320;28;20063;-72
2021/01/01 02:22:43;;;;;;;65.78;36.08;;;;;;;;;;5073309;28;20028;-72
2021/01/01 02:25:09;;;;;;;71.40;36.25;;;;;;;;;;5072091;28;20029;-72
2021/01/01 02:27:35;;;;;;;69.05;37.90;;;;;;;;;;5072419;28;20171;-72
2021/01/01 02:30:01;;;;;;;67.95;35.63;;;;;;;;;;5071973;28;20062;-72
2021/01/01 02:32:27;;;;;;;66.05;34.97;;;;;;;;;;5087691;28;20075;-72
2021/01/01 02:34:52;;;;;;;69.97;36.92;;;;;;;;;;5075237;28;20032;-72
2021/01/01 02:37:17;;;;;;;72.63;37.72;;;;;;;;;;5075123;28;20405;-72
2021/01/01 02:39:43;;;;;;;71.95;36.97;;;;;;;;;;5075088;28;20024;-73
2021/01/01 02:42:09;;;;;;;68.18;36.03;;;;;;;;;;5093265;28;20033;-67
2021/01/01 02:44:34;;;;;;;68.53;37.35;;;;;;;;;;5075193;28;20094;-67
2021/01/01 02:47:03;;;;;;;71.05;36.63;;;;;;;;;;5093342;28;20496;-67
2021/01/01 02:49:29;;;;;;;68.38;36.20;;;;;;;;;;5074840;28;20028;-67
2021/01/01 02:51:54;;;;;;;67.47;36.38;;;;;;;;;;5075124;28;20032;-67
2021/01/01 02:54:20;;;;;;;68.05;36.45;;;;;;;;;;5075367;28;20411;-67
2021/01/01 02:56:45;;;;;;;58.70;32.00;;;;;;;;;;5092912;28;20039;-67
2021/01/01 02:59:11;;;;;;;66.00;35.85;;;;;;;;;;5092987;28;20120;-66
2021/01/01 03:01:36;;;;;;;73.97;38.58;;;;;;;;;;5092766;28;20059;-66
2021/01/01 03:04:02;;;;;;;68.20;37.15;;;;;;;;;;5093065;28;20040;-66
2021/01/01 03:06:28;;;;;;;71.50;36.65;;;;;;;;;;5092900;28;20048;-71
2021/01/01 03:08:53;;;;;;;70.85;37.55;;;;;;;;;;5092853;28;20035;-71
2021/01/01 03:11:19;;;;;;;70.53;36.80;;;;;;;;;;5092892;28;20043;-71
2021/01/01 03:13:45;;;;;;;65.93;35.72;;;;;;;;;;5093041;28;20032;-71
2021/01/01 03:16:10;;;;;;;69.95;37.22;;;;;;;;;;5092891;28;20123;-72
2021/01/01 03:18:36;;;;;;;69.53;37.40;;;;;;;;;;5074927;28;20031;-72
2021/01/01 03:21:01;;;;;;;65.72;35.95;;;;;;;;;;5093143;28;20032;-66
2021/01/01 03:23:27;;;;;;;70.95;36.38;;;;;;;;;;5092900;28;20186;-66
2021/01/01 03:25:52;;;;;;;74.45;38.00;;;;;;;;;;5092860;28;20058;-67
2021/01/01 03:28:18;;;;;;;68.65;37.58;;;;;;;;;;5092816;28;20032;-68
2021/01/01 03:30:43;;;;;;;60.13;33.55;;;;;;;;;;5092261;28;20071;-69
2021/01/01 03:33:09;;;;;;;70.00;36.28;;;;;;;;;;5072644;28;20037;-68
2021/01/01 03:35:34;;;;;;;64.85;36.13;;;;;;;;;;5054566;28;20095;-67
2021/01/01 03:38:00;;;;;;;59.45;33.58;;;;;;;;;;5073082;28;20112;-67
2021/01/01 03:40:26;;;;;;;64.53;36.10;;;;;;;;;;5075899;28;20033;-67
2021/01/01 03:42:51;;;;;;;65.28;37.30;;;;;;;;;;5075869;28;20159;-67
2021/01/01 03:45:17;;;;;;;68.72;37.47;;;;;;;;;;5075810;28;20371;-67
2021/01/01 03:47:42;;;;;;;71.35;39.25;;;;;;;;;;5057873;28;20131;-67
2021/01/01 03:50:08;;;;;;;71.25;38.50;;;;;;;;;;5058296;28;20062;-67
2021/01/01 03:52:33;;;;;;;68.85;38.25;;;;;;;;;;5075709;28;20021;-67
2021/01/01 03:54:59;;;;;;;68.10;36.53;;;;;;;;;;5057871;28;20036;-67
2021/01/01 03:57:24;;;;;;;68.47;38.78;;;;;;;;;;5075206;28;20035;-68
2021/01/01 03:59:50;;;;;;;71.63;39.08;;;;;;;;;;5058039;28;20455;-67
2021/01/01 04:02:16;;;;;;;65.38;38.35;;;;;;;;;;5057787;28;20573;-67
2021/01/01 04:04:41;;;;;;;66.57;38.05;;;;;;;;;;5075534;28;20044;-67
2021/01/01 04:07:06;;;;;;;68.68;38.53;;;;;;;;;;5057663;28;20035;-68
2021/01/01 04:09:32;;;;;;;66.82;37.28;;;;;;;;;;5057603;28;20063;-68
2021/01/01 04:11:57;;;;;;;71.93;39.20;;;;;;;;;;5075420;28;20082;-69
2021/01/01 04:14:23;;;;;;;64.38;36.63;;;;;;;;;;5075360;28;20512;-68
2021/01/01 04:16:48;;;;;;;66.65;37.78;;;;;;;;;;5057359;28;20123;-68
2021/01/01 04:19:14;;;;;;;65.68;38.22;;;;;;;;;;5057394;28;20139;-68
2021/01/01 04:21:46;;;;;;;72.68;39.72;;;;;;;;;;5075457;28;20046;-67
2021/01/01 04:24:12;;;;;;;66.88;38.35;;;;;;;;;;5075254;28;20048;-68
2021/01/01 04:26:37;;;;;;;66.90;36.53;;;;;;;;;;5075131;28;20115;-68
2021/01/01 04:29:03;;;;;;;66.65;38.47;;;;;;;;;;5075176;28;20175;-68
2021/01/01 04:31:28;;;;;;;72.43;38.78;;;;;;;;;;5059871;28;20044;-67
2021/01/01 04:33:54;;;;;;;72.20;39.83;;;;;;;;;;5074879;28;20090;-67
2021/01/01 04:36:19;;;;;;;71.00;38.58;;;;;;;;;;5075101;28;20047;-67
2021/01/01 04:38:45;;;;;;;63.53;34.38;;;;;;;;;;5074818;28;20036;-67
2021/01/01 04:41:11;;;;;;;65.43;35.10;;;;;;;;;;5074780;28;20112;-67
2021/01/01 04:43:36;;;;;;;62.97;36.47;;;;;;;;;;5074836;28;20047;-67
2021/01/01 04:46:03;;;;;;;67.82;36.65;;;;;;;;;;5074709;28;20059;-67
2021/01/01 04:48:28;;;;;;;67.65;36.45;;;;;;;;;;5074709;28;20562;-67
2021/01/01 04:50:55;;;;;;;57.83;33.25;;;;;;;;;;5073613;28;20123;-67
2021/01/01 04:53:22;;;;;;;61.05;32.83;;;;;;;;;;5074660;28;20032;-67
2021/01/01 04:55:47;;;;;;;56.75;31.27;;;;;;;;;;5073271;28;20025;-67
2021/01/01 04:58:13;;;;;;;56.50;31.77;;;;;;;;;;5074430;28;20119;-68
2021/01/01 05:00:38;;;;;;;49.88;28.83;;;;;;;;;;5073078;28;20032;-68
2021/01/01 05:03:04;;;;;;;43.72;27.40;;;;;;;;;;5074498;28;20029;-73
2021/01/01 05:05:31;;;;;;;50.55;29.20;;;;;;;;;;5074487;28;20479;-73
2021/01/01 05:07:57;;;;;;;48.13;27.85;;;;;;;;;;5074460;28;20040;-73
2021/01/01 05:10:22;;;;;;;46.85;26.50;;;;;;;;;;5074366;28;20407;-73
2021/01/01 05:12:49;;;;;;;47.72;27.70;;;;;;;;;;5074234;28;20549;-73
2021/01/01 05:15:31;;;;;;;46.15;26.35;;;;;;;;;;5074306;28;20023;-73
2021/01/01 05:17:57;;;;;;;42.92;25.65;;;;;;;;;;5056537;28;20025;-74
2021/01/01 05:20:27;;;;;;;41.58;25.27;;;;;;;;;;5074302;28;20047;-73
2021/01/01 05:22:56;;;;;;;42.97;25.55;;;;;;;;;;5074180;28;20037;-68
2021/01/01 05:25:23;;;;;;;38.80;24.65;;;;;;;;;;5074025;28;20086;-68
2021/01/01 05:27:49;;;;;;;40.78;24.20;;;;;;;;;;5073898;28;20036;-68
2021/01/01 05:30:17;;;;;;;43.97;26.17;;;;;;;;;;5073919;28;20119;-68
2021/01/01 05:32:52;;;;;;;50.67;28.30;;;;;;;;;;5090567;28;20058;-68
2021/01/01 05:35:27;;;;;;;42.53;24.63;;;;;;;;;;5093997;28;20127;-69
2021/01/01 05:37:53;;;;;;;41.13;25.08;;;;;;;;;;5094023;28;20044;-69
2021/01/01 05:40:27;;;;;;;41.95;25.65;;;;;;;;;;5094089;28;20032;-69
2021/01/01 05:42:53;;;;;;;44.10;24.98;;;;;;;;;;5075943;28;20098;-69
2021/01/01 05:45:19;;;;;;;42.45;24.90;;;;;;;;;;5093754;28;20478;-69
2021/01/01 05:48:03;;;;;;;40.67;24.38;;;;;;;;;;5093929;28;20062;-68
2021/01/01 05:50:28;;;;;;;42.63;24.15;;;;;;;;;;5093757;28;20393;-69
2021/01/01 05:53:12;;;;;;;40.78;23.38;;;;;;;;;;5093841;28;20020;-69
2021/01/01 05:55:38;;;;;;;40.17;24.30;;;;;;;;;;5075384;28;20036;-69
2021/01/01 05:58:03;;;;;;;41.67;23.75;;;;;;;;;;5093764;28;20028;-69
2021/01/01 06:00:30;;;;;;;44.47;25.05;;;;;;;;;;5093846;28;20097;-68
2021/01/01 06:02:56;;;;;;;40.45;24.17;;;;;;;;;;5092827;28;20042;-69
2021/01/01 06:05:25;;;;;;;32.78;20.60;;;;;;;;;;5093669;28;20043;-69
2021/01/01 06:07:50;;;;;;;32.72;20.40;;;;;;;;;;5093741;28;20032;-69
2021/01/01 06:10:16;;;;;;;32.63;19.80;;;;;;;;;;5093140;28;20043;-69
2021/01/01 06:12:44;;;;;;;34.88;19.77;;;;;;;;;;5093804;28;20454;-67
2021/01/01 06:15:09;;;;;;;27.65;18.23;;;;;;;;;;5093509;28;20043;-66
2021/01/01 06:17:40;;;;;;;32.88;19.67;;;;;;;;;;5075367;28;20025;-67
2021/01/01 06:20:06;;;;;;;30.95;18.58;;;;;;;;;;5075082;28;20038;-68
2021/01/01 06:22:32;;;;;;;32.83;20.63;;;;;;;;;;5092985;28;20027;-68
2021/01/01 06:25:01;;;;;;;33.03;20.50;;;;;;;;;;5093025;28;20496;-67
2021/01/01 06:27:27;;;;;;;33.38;20.15;;;;;;;;;;5075039;28;20028;-67
2021/01/01 06:30:19;;;;;;;42.83;23.13;;;;;;;;;;5092804;28;20035;-67
2021/01/01 06:32:44;;;;;;;40.42;22.92;;;;;;;;;;5087733;28;20044;-66
2021/01/01 06:35:23;;;;;;;37.90;22.52;;;;;;;;;;5081954;28;20389;-68
2021/01/01 06:37:50;;;;;;;27.95;18.95;;;;;;;;;;5092411;28;20490;-68
2021/01/01 06:40:21;;;;;;;28.30;18.38;;;;;;;;;;5093745;28;20062;-67
2021/01/01 06:42:53;;;;;;;43.90;23.40;;;;;;;;;;5093406;28;20445;-70
2021/01/01 06:45:41;;;;;;;43.80;25.40;;;;;;;;;;5075387;28;20039;-70
2021/01/01 06:48:22;;;;;;;47.22;28.40;;;;;;;;;;5093428;28;20059;-70
2021/01/01 06:50:52;;;;;;;33.90;19.77;;;;;;;;;;5092857;28;20126;-68
2021/01/01 06:53:18;;;;;;;26.85;18.67;;;;;;;;;;5071661;28;20060;-69
2021/01/01 06:55:47;;;;;;;35.58;20.65;;;;;;;;;;5082174;28;20037;-69
2021/01/01 06:58:15;;;;;;;30.77;18.10;;;;;;;;;;5091581;28;20027;-69
2021/01/01 07:00:47;;;;;;;39.60;21.33;;;;;;;;;;5093380;28;20039;-70
2021/01/01 07:03:28;;;;;;;32.03;19.08;;;;;;;;;;5092928;28;20035;-70
2021/01/01 07:05:53;;;;;;;;;;;;;;;;;;5090337;28;20372;-70
2021/01/01 07:08:37;;;;;;;30.13;17.42;;;;;;;;;;5086661;28;19915;-70
2021/01/01 07:11:03;;;;;;;29.23;16.73;;;;;;;;;;5082906;28;20549;-70
2021/01/01 07:13:39;;;;;;;27.45;17.25;;;;;;;;;;5074446;28;20056;-70
2021/01/01 07:16:04;;;;;;;29.33;18.02;;;;;;;;;;5096618;28;20028;-70
2021/01/01 07:18:30;;;;;;;29.88;17.27;;;;;;;;;;5086985;28;20027;-70
2021/01/01 07:20:59;;;;;;;27.17;16.83;;;;;;;;;;5074197;28;20039;-70
2021/01/01 07:23:28;;;;;;;25.03;16.63;;;;;;;;;;5075519;28;20101;-70
2021/01/01 07:25:54;;;;;;;27.13;16.80;;;;;;;;;;5057405;28;20283;-70
2021/01/01 07:28:21;;;;;;;30.05;16.95;;;;;;;;;;5075162;28;20037;-70
2021/01/01 07:30:47;;;;;;;28.27;17.20;;;;;;;;;;5074745;28;20475;-70
2021/01/01 07:33:18;;;;;;;30.02;16.90;;;;;;;;;;5073445;28;20070;-70
2021/01/01 07:36:00;;;;;;;27.75;16.42;;;;;;;;;;5057350;28;20040;-70
2021/01/01 07:38:26;;;;;;;28.65;18.42;;;;;;;;;;5075185;28;20033;-70
2021/01/01 07:40:51;;;;;;;33.08;18.90;;;;;;;;;;5075311;28;20053;-70
2021/01/01 07:43:17;;;;;;;33.45;19.20;;;;;;;;;;5075351;28;20253;-70
2021/01/01 07:45:43;;;;;;;31.05;18.27;;;;;;;;;;5075109;28;20028;-70
2021/01/01 07:48:09;;;;;;;34.35;20.48;;;;;;;;;;5057136;28;20068;-70
2021/01/01 07:50:35;;;;;;;34.15;20.95;;;;;;;;;;5075123;28;20453;-70
2021/01/01 07:53:01;;;;;;;35.22;22.05;;;;;;;;;;5093815;28;20116;-69
2021/01/01 07:55:27;;;;;;;37.08;22.25;;;;;;;;;;5095409;28;20451;-70
2021/01/01 07:57:53;;;;;;;33.45;21.45;;;;;;;;;;5095056;28;20043;-70
2021/01/01 08:00:18;;;;;;;37.38;23.80;;;;;;;;;;5086511;28;20059;-70
2021/01/01 08:02:44;;;;;;;29.08;18.95;;;;;;;;;;5081482;28;20028;-70
2021/01/01 08:05:13;;;;;;;32.63;20.05;;;;;;;;;;5063522;28;20497;-70
2021/01/01 08:07:39;;;;;;;26.65;17.83;;;;;;;;;;5082166;28;20482;-70
2021/01/01 08:10:05;;;;;;;50.72;39.85;;;;;;;;;;5091927;28;20035;-69
2021/01/01 08:12:31;;;;;;;29.27;19.08;;;;;;;;;;5066066;28;20118;-70
2021/01/01 08:14:57;;;;;;;29.50;18.33;;;;;;;;;;5099703;28;20027;-69
2021/01/01 08:17:26;;;;;;;25.20;15.43;;;;;;;;;;5075243;28;20032;-68
2021/01/01 08:19:51;;;;;;;17.90;12.10;;;;;;;;;;5089983;28;20032;-73
2021/01/01 08:22:21;;;;;;;17.52;11.30;;;;;;;;;;5069525;28;20406;-73
2021/01/01 08:24:48;;;;;;;17.38;12.45;;;;;;;;;;5081609;28;20060;-73
2021/01/01 08:27:14;;;;;;;15.20;11.40;;;;;;;;;;5070861;28;20040;-73
2021/01/01 08:29:40;;;;;;;18.55;10.80;;;;;;;;;;5083594;28;20024;-73
2021/01/01 08:32:06;;;;;;;17.83;11.45;;;;;;;;;;5087961;28;20049;-68
2021/01/01 08:34:32;;;;;;;18.80;12.10;;;;;;;;;;5091145;28;20047;-73
2021/01/01 08:36:57;;;;;;;16.92;11.70;;;;;;;;;;5094135;28;20036;-73
2021/01/01 08:39:24;;;;;;;16.92;11.70;;;;;;;;;;5092854;28;20028;-73
2021/01/01 08:41:50;;;;;;;16.67;12.98;;;;;;;;;;5087631;28;20071;-73
2021/01/01 08:44:16;;;;;;;20.77;14.05;;;;;;;;;;5082895;28;20032;-73
2021/01/01 08:46:42;;;;;;;20.02;12.98;;;;;;;;;;5072163;28;20040;-73
2021/01/01 08:49:18;;;;;;;16.10;10.57;;;;;;;;;;5084300;28;20040;-73
2021/01/01 08:51:44;;;;;;;17.90;11.27;;;;;;;;;;5074087;28;20032;-73
2021/01/01 08:54:20;;;;;;;18.02;12.68;;;;;;;;;;5085383;28;20024;-72
2021/01/01 08:56:47;;;;;;;21.38;13.68;;;;;;;;;;5088791;28;20036;-73
2021/01/01 08:59:12;;;;;;;25.20;14.55;;;;;;;;;;5093401;28;20024;-69
2021/01/01 09:01:38;;;;;;;25.30;15.82;;;;;;;;;;5092324;28;20113;-70
2021/01/01 09:04:03;;;;;;;26.15;16.25;;;;;;;;;;5090677;28;20100;-69
2021/01/01 09:06:29;;;;;;;23.52;14.80;;;;;;;;;;5073633;28;20042;-69
2021/01/01 09:09:07;;;;;;;23.20;15.63;;;;;;;;;;5088169;28;20435;-69
2021/01/01 09:11:32;;;;;;;27.05;17.02;;;;;;;;;;5060851;28;20439;-70
2021/01/01 09:13:59;;;;;;;24.73;16.27;;;;;;;;;;5080715;28;20036;-70
2021/01/01 09:16:24;;;;;;;29.20;17.45;;;;;;;;;;5091288;28;20028;-70
2021/01/01 09:18:50;;;;;;;24.73;17.70;;;;;;;;;;5076324;28;20474;-70
2021/01/01 09:21:16;;;;;;;26.15;16.90;;;;;;;;;;5065740;28;20506;-70
2021/01/01 09:23:49;;;;;;;22.52;15.18;;;;;;;;;;5080701;28;20131;-70
2021/01/01 09:26:20;;;;;;;23.40;15.07;;;;;;;;;;5082091;28;20041;-70
2021/01/01 09:28:46;;;;;;;24.02;16.02;;;;;;;;;;5063771;28;20367;-70
2021/01/01 09:31:13;;;;;;;23.08;15.05;;;;;;;;;;5077974;28;20039;-70
2021/01/01 09:33:39;;;;;;;25.40;16.02;;;;;;;;;;5067437;28;20032;-70
2021/01/01 09:36:05;;;;;;;25.35;16.45;;;;;;;;;;5090017;28;20516;-71
2021/01/01 09:38:30;;;;;;;21.98;15.50;;;;;;;;;;5075638;28;20056;-71
2021/01/01 09:40:55;;;;;;;23.75;16.05;;;;;;;;;;5076503;28;20347;-71
2021/01/01 09:43:21;;;;;;;22.83;16.08;;;;;;;;;;5089182;28;20035;-70
2021/01/01 09:45:47;;;;;;;25.63;15.63;;;;;;;;;;5093286;28;20024;-71
2021/01/01 09:48:13;;;;;;;23.88;16.17;;;;;;;;;;5096201;28;20123;-70
2021/01/01 09:50:38;;;;;;;24.98;16.60;;;;;;;;;;5098557;28;20114;-70
2021/01/01 09:53:04;;;;;;;37.03;24.45;;;;;;;;;;5095360;28;20050;-71
2021/01/01 09:55:29;;;;;;;37.83;23.85;;;;;;;;;;5093008;28;20038;-71
2021/01/01 09:57:55;;;;;;;34.53;21.00;;;;;;;;;;5096931;28;20077;-71
2021/01/01 10:00:21;;;;;;;25.05;16.58;;;;;;;;;;5095348;28;20055;-71
2021/01/01 10:02:46;;;;;;;29.90;18.90;;;;;;;;;;5066102;28;20036;-71
2021/01/01 10:05:12;;;;;;;31.77;22.63;;;;;;;;;;5080185;28;20047;-71
2021/01/01 10:07:38;;;;;;;31.92;21.95;;;;;;;;;;5078455;28;20070;-71
2021/01/01 10:10:05;;;;;;;25.80;17.17;;;;;;;;;;5089659;28;20393;-62
2021/01/01 10:12:31;;;;;;;26.90;17.83;;;;;;;;;;5097173;28;20032;-70
2021/01/01 10:15:00;;;;;;;22.63;15.38;;;;;;;;;;5079499;28;20029;-70
2021/01/01 10:17:26;;;;;;;25.25;16.33;;;;;;;;;;5088039;28;20085;-69
2021/01/01 10:19:52;;;;;;;25.38;16.10;;;;;;;;;;5074539;28;20074;-70
2021/01/01 10:22:17;;;;;;;23.45;16.10;;;;;;;;;;5084143;28;20048;-70
2021/01/01 10:24:46;;;;;;;24.02;16.25;;;;;;;;;;5084720;28;20036;-69
2021/01/01 10:27:12;;;;;;;53.08;35.45;;;;;;;;;;5092286;28;20032;-68
2021/01/01 10:29:38;;;;;;;50.97;33.83;;;;;;;;;;5079009;28;20394;-68
2021/01/01 10:32:04;;;;;;;48.10;32.72;;;;;;;;;;5087141;28;20044;-69
2021/01/01 10:34:30;;;;;;;27.70;18.13;;;;;;;;;;5072537;28;20033;-68
2021/01/01 10:36:55;;;;;;;31.08;21.02;;;;;;;;;;5071459;28;20031;-69
2021/01/01 10:39:21;;;;;;;23.38;14.35;;;;;;;;;;5054617;28;20041;-68
2021/01/01 10:41:48;;;;;;;32.50;20.45;;;;;;;;;;5060540;28;20029;-69
2021/01/01 10:44:13;;;;;;;39.30;29.27;;;;;;;;;;5051655;28;20037;-69
2021/01/01 10:46:40;;;;;;;35.58;22.30;;;;;;;;;;5066119;28;20067;-69
2021/01/01 10:49:06;;;;;;;26.90;18.25;;;;;;;;;;5054165;28;20033;-69
2021/01/01 11:01:57;;;;;;;34.50;22.35;;;;;;;;;;5057448;28;20494;-69
2021/01/01 11:07:58;;;;;;;42.50;25.45;;;;;;;;;;5057213;28;20090;-69
2021/01/01 12:20:51;;;;;;;48.00;27.50;;;;;;;;;;5070879;28;20032;-70
2021/01/01 12:25:11;;;;;;;49.97;28.98;;;;;;;;;;5079740;28;20036;-70
2021/01/01 12:27:37;;;;;;;42.22;24.45;;;;;;;;;;5064905;28;20044;-70
2021/01/01 12:30:04;;;;;;;60.40;34.38;;;;;;;;;;5082944;28;21050;-71
2021/01/01 12:32:30;;;;;;;42.20;24.55;;;;;;;;;;5081858;28;20102;-70
2021/01/01 12:34:56;;;;;;;37.22;22.92;;;;;;;;;;5063934;28;21731;-70
2021/01/01 12:37:22;;;;;;;42.78;24.05;;;;;;;;;;5081005;28;20470;-70
2021/01/01 12:39:47;;;;;;;46.92;29.05;;;;;;;;;;5086764;28;20032;-71
2021/01/01 12:42:13;;;;;;;54.00;30.13;;;;;;;;;;5080554;28;20044;-71
2021/01/01 12:44:38;;;;;;;33.50;21.02;;;;;;;;;;5074292;28;20032;-70
2021/01/01 12:47:04;;;;;;;30.50;20.05;;;;;;;;;;5077885;28;20041;-70
2021/01/01 12:49:31;;;;;;;29.55;19.33;;;;;;;;;;5082307;28;20056;-70
2021/01/01 12:51:58;;;;;;;31.85;20.30;;;;;;;;;;5091498;28;20066;-70
2021/01/01 12:54:24;;;;;;;45.25;29.80;;;;;;;;;;5075516;28;20020;-71
2021/01/01 12:56:50;;;;;;;41.08;24.92;;;;;;;;;;5073942;28;20025;-70
2021/01/01 12:59:15;;;;;;;37.75;23.73;;;;;;;;;;5072589;28;20618;-70
2021/01/01 13:01:41;;;;;;;37.17;23.17;;;;;;;;;;5072288;28;20032;-70
2021/01/01 13:04:06;;;;;;;40.70;25.42;;;;;;;;;;5072298;28;20515;-70
2021/01/01 13:06:32;;;;;;;42.55;25.55;;;;;;;;;;5073709;28;20487;-71
2021/01/01 13:08:57;;;;;;;74.05;45.75;;;;;;;;;;5073726;28;20068;-70
2021/01/01 13:11:26;;;;;;;46.28;27.98;;;;;;;;;;5073027;28;20182;-71
2021/01/01 13:13:51;;;;;;;56.67;26.40;;;;;;;;;;5073763;28;20021;-70
2021/01/01 13:16:21;;;;;;;39.03;25.70;;;;;;;;;;5073399;28;20077;-70
2021/01/01 13:18:47;;;;;;;36.97;23.98;;;;;;;;;;5073698;28;20032;-70
2021/01/01 13:21:13;;;;;;;35.90;22.25;;;;;;;;;;5055646;28;20040;-70
2021/01/01 13:23:39;;;;;;;30.00;20.15;;;;;;;;;;5072179;28;20033;-70
2021/01/01 13:26:04;;;;;;;32.35;21.92;;;;;;;;;;5073429;28;20036;-70
2021/01/01 13:28:30;;;;;;;56.88;34.97;;;;;;;;;;5073499;28;20498;-70
2021/01/01 13:30:56;;;;;;;35.63;21.48;;;;;;;;;;5072344;28;20044;-70
2021/01/01 13:33:21;;;;;;;35.17;22.08;;;;;;;;;;5073314;28;20563;-70
2021/01/01 13:35:51;;;;;;;36.03;22.85;;;;;;;;;;5055222;28;20441;-70
2021/01/01 13:38:18;;;;;;;39.47;23.17;;;;;;;;;;5085376;28;20150;-70
2021/01/01 13:40:43;;;;;;;36.42;22.63;;;;;;;;;;5076939;28;20021;-70
2021/01/01 13:43:09;;;;;;;33.47;20.88;;;;;;;;;;5093764;28;20036;-70
2021/01/01 13:45:38;;;;;;;31.65;21.13;;;;;;;;;;5074442;28;20032;-70
2021/01/01 13:48:04;;;;;;;39.53;23.38;;;;;;;;;;5092949;28;20085;-70
2021/01/01 13:50:31;;;;;;;46.25;25.75;;;;;;;;;;5092268;28;20027;-70
2021/01/01 13:52:56;;;;;;;38.05;24.95;;;;;;;;;;5092632;28;20120;-71
2021/01/01 13:55:22;;;;;;;36.50;22.75;;;;;;;;;;5073957;28;20119;-70
2021/01/01 13:57:48;;;;;;;45.08;24.98;;;;;;;;;;5073660;28;20479;-70
2021/01/01 14:00:14;;;;;;;36.30;22.42;;;;;;;;;;5092409;28;20047;-71
2021/01/01 14:02:39;;;;;;;44.83;25.65;;;;;;;;;;5074233;28;20039;-70
2021/01/01 14:05:06;;;;;;;39.50;23.52;;;;;;;;;;5073950;28;20032;-70
2021/01/01 14:07:32;;;;;;;40.38;23.48;;;;;;;;;;5092537;28;20043;-70
2021/01/01 14:09:57;;;;;;;34.95;22.33;;;;;;;;;;5092258;28;20089;-70
2021/01/01 14:12:23;;;;;;;35.08;22.65;;;;;;;;;;5092086;28;20077;-70
2021/01/01 14:14:48;;;;;;;42.42;24.98;;;;;;;;;;5092116;28;20089;-70
2021/01/01 14:17:14;;;;;;;44.88;27.85;;;;;;;;;;5091865;28;20039;-70
2021/01/01 14:23:14;;;;;;;39.22;23.88;;;;;;;;;;5093238;28;20066;-69
2021/01/01 14:29:15;;;;;;;42.00;25.58;;;;;;;;;;5093971;28;20456;-69
2021/01/01 14:38:46;;;;;;;43.22;25.58;;;;;;;;;;5093896;28;20042;-69
2021/01/01 14:44:48;;;;;;;42.13;22.63;;;;;;;;;;5093918;28;20043;-69
2021/01/01 15:01:05;;;;;;;47.55;28.77;;;;;;;;;;5093739;28;20081;-71
2021/01/01 15:07:06;;;;;;;72.88;39.58;;;;;;;;;;5093439;28;20078;-72
2021/01/01 15:13:07;;;;;;;47.05;27.50;;;;;;;;;;5093676;28;20089;-71
2021/01/01 15:19:08;;;;;;;65.00;32.58;;;;;;;;;;5093602;28;20039;-71
2021/01/01 15:25:09;;;;;;;87.57;38.95;;;;;;;;;;5093506;28;20046;-72
2021/01/01 15:31:10;;;;;;;83.18;48.13;;;;;;;;;;5093313;28;20043;-71
2021/01/01 15:40:33;;;;;;;61.65;34.20;;;;;;;;;;5097042;28;20062;-72
2021/01/01 15:50:09;;;;;;;102.55;56.53;;;;;;;;;;5096534;28;20425;-71
2021/01/01 15:56:10;;;;;;;104.60;59.38;;;;;;;;;;5096496;28;20476;-72
2021/01/01 16:02:11;;;;;;;57.53;31.70;;;;;;;;;;5096641;28;20028;-72
2021/01/01 16:08:12;;;;;;;83.63;46.05;;;;;;;;;;5096549;28;20035;-71
2021/01/01 16:14:13;;;;;;;73.43;41.25;;;;;;;;;;5096410;28;20058;-72
2021/01/01 16:20:14;;;;;;;75.65;40.50;;;;;;;;;;5096325;28;20144;-71
2021/01/01 16:26:14;;;;;;;73.32;39.80;;;;;;;;;;5096196;28;20043;-71
2021/01/01 16:32:15;;;;;;;97.80;56.55;;;;;;;;;;5096131;28;20445;-71
2021/01/01 16:46:24;;;;;;;65.30;37.03;;;;;;;;;;5094958;28;20100;-70
2021/01/01 16:52:43;;;;;;;122.93;73.18;;;;;;;;;;5095690;28;20149;-71
2021/01/01 16:58:44;;;;;;;69.47;38.50;;;;;;;;;;5095544;28;20027;-71
2021/01/01 17:04:45;;;;;;;82.60;37.28;;;;;;;;;;5095463;28;20058;-71
2021/01/01 17:10:46;;;;;;;70.20;33.53;;;;;;;;;;5094995;28;20090;-70
2021/01/01 17:16:47;;;;;;;122.88;74.47;;;;;;;;;;5095208;28;20477;-71
2021/01/01 17:22:47;;;;;;;94.63;45.28;;;;;;;;;;5095087;28;20030;-71
2021/01/01 17:28:47;;;;;;;97.05;48.20;;;;;;;;;;5094747;28;20543;-71
2021/01/01 17:34:48;;;;;;;80.75;42.13;;;;;;;;;;5094615;28;20078;-70
2021/01/01 17:48:25;;;;;;;70.78;37.47;;;;;;;;;;5094375;28;20512;-69
2021/01/01 17:54:28;;;;;;;69.88;37.03;;;;;;;;;;5094524;28;20058;-70
2021/01/01 18:04:07;;;;;;;72.97;37.55;;;;;;;;;;5094379;28;20035;-70
2021/01/01 18:10:10;;;;;;;64.47;33.08;;;;;;;;;;5094120;28;20166;-70
2021/01/01 18:16:10;;;;;;;69.93;35.67;;;;;;;;;;5094196;28;20030;-71
2021/01/01 18:22:11;;;;;;;75.35;39.55;;;;;;;;;;5094217;28;20429;-71
2021/01/01 18:28:14;;;;;;;74.07;42.85;;;;;;;;;;5094057;28;20036;-71
2021/01/01 18:48:58;;;;;;;62.13;32.03;;;;;;;;;;5051616;28;20395;-70